Time;durP1;ratioP1;P1;durP2;ratioP2;P2;SDS_P1;SDS_P2;PMS_P1;PMS_P2;Temp;Humidity;BMP_temperature;BMP_pressure;BME280_temperature;BME280_humidity;BME280_pressure;Samples;Min_cycle;Max_cycle;Signal;HPM_P1;HPM_P2
2022/06/20 00:02:25;;;;;;;14.80;6.20;;;24.60;56.40;;;;;;4994302;28;20429;-70
2022/06/20 00:04:53;;;;;;;10.60;5.88;;;24.50;56.70;;;;;;4993971;28;20034;-69
2022/06/20 00:07:19;;;;;;;10.90;6.03;;;24.40;56.30;;;;;;4997986;28;20570;-70
2022/06/20 00:09:45;;;;;;;10.23;6.00;;;24.40;56.40;;;;;;5000071;28;20266;-70
2022/06/20 00:12:17;;;;;;;15.05;6.55;;;24.40;57.00;;;;;;4999708;28;20040;-70
2022/06/20 00:14:43;;;;;;;12.90;6.82;;;24.40;56.80;;;;;;5000044;28;20044;-70
2022/06/20 00:17:14;;;;;;;16.00;6.50;;;24.40;56.50;;;;;;4998686;28;20034;-69
2022/06/20 00:19:42;;;;;;;14.68;6.05;;;24.40;57.00;;;;;;5000447;28;20030;-69
2022/06/20 00:22:11;;;;;;;9.70;6.72;;;24.40;56.60;;;;;;5000958;28;20041;-69
2022/06/20 00:24:37;;;;;;;18.05;6.57;;;24.40;56.80;;;;;;5000481;28;20041;-69
2022/06/20 00:27:06;;;;;;;11.07;6.70;;;24.40;57.00;;;;;;5000020;28;20046;-69
2022/06/20 00:29:33;;;;;;;15.25;7.40;;;24.40;57.00;;;;;;4982526;28;20034;-69
2022/06/20 00:32:00;;;;;;;14.50;7.20;;;24.40;57.10;;;;;;5000250;28;20038;-70
2022/06/20 00:34:25;;;;;;;14.40;6.95;;;24.40;57.20;;;;;;5000086;28;20038;-70
2022/06/20 00:36:51;;;;;;;16.13;6.75;;;24.30;57.30;;;;;;4998248;28;20169;-70
2022/06/20 00:39:19;;;;;;;12.00;7.07;;;24.30;57.30;;;;;;4999441;28;20635;-69
2022/06/20 00:41:44;;;;;;;16.40;7.20;;;24.30;57.60;;;;;;4999959;28;20041;-70
2022/06/20 00:44:16;;;;;;;14.82;7.13;;;24.20;57.60;;;;;;4988548;28;20037;-69
2022/06/20 00:46:49;;;;;;;10.82;6.60;;;24.10;57.80;;;;;;4997587;28;20339;-69
2022/06/20 00:49:26;;;;;;;12.25;6.53;;;24.10;58.00;;;;;;4998800;28;20068;-69
2022/06/20 00:52:05;;;;;;;12.80;6.45;;;24.10;57.90;;;;;;5000021;28;20652;-70
2022/06/20 00:54:34;;;;;;;9.68;6.15;;;24.00;57.70;;;;;;4998530;28;20052;-69
2022/06/20 00:57:09;;;;;;;15.35;7.60;;;24.00;57.70;;;;;;4999137;28;20117;-70
2022/06/20 00:59:37;;;;;;;;;;;24.00;58.60;;;;;;5000274;28;20084;-70
2022/06/20 01:02:08;;;;;;;14.93;6.90;;;24.00;57.30;;;;;;5003832;28;20750;-68
2022/06/20 01:04:46;;;;;;;14.25;7.13;;;24.00;57.70;;;;;;4989293;28;20040;-69
2022/06/20 01:07:20;;;;;;;14.48;6.65;;;24.00;57.80;;;;;;4995966;28;20034;-69
2022/06/20 01:09:49;;;;;;;17.95;7.20;;;23.90;58.70;;;;;;4980705;28;20069;-69
2022/06/20 01:12:19;;;;;;;12.30;6.45;;;23.80;58.20;;;;;;4994371;28;20037;-67
2022/06/20 01:14:45;;;;;;;15.27;6.97;;;23.80;58.40;;;;;;4994925;28;20061;-69
2022/06/20 01:17:23;;;;;;;11.48;6.55;;;23.70;58.50;;;;;;4994124;28;20077;-68
2022/06/20 01:20:07;;;;;;;14.27;6.75;;;23.70;59.20;;;;;;4993399;28;20893;-67
2022/06/20 01:22:47;;;;;;;15.75;6.65;;;23.70;59.10;;;;;;4992563;28;20417;-68
2022/06/20 01:25:34;;;;;;;13.02;6.70;;;23.70;58.80;;;;;;4997205;28;20053;-69
2022/06/20 01:28:00;;;;;;;12.02;6.32;;;23.70;59.20;;;;;;4993994;28;20880;-70
2022/06/20 01:30:32;;;;;;;13.23;6.13;;;23.70;58.90;;;;;;4991621;28;20105;-70
2022/06/20 01:32:59;;;;;;;12.40;6.38;;;23.70;59.10;;;;;;4996220;28;20437;-70
2022/06/20 01:38:13;;;;;;;10.75;6.25;;;23.80;59.10;;;;;;4993184;28;20041;-70
2022/06/20 01:42:18;;;;;;;13.50;6.70;;;23.90;59.10;;;;;;4992505;28;20772;-69
2022/06/20 01:43:31;;;;;;;12.63;6.53;;;23.90;59.10;;;;;;4991043;28;20520;-70
2022/06/20 01:45:57;;;;;;;13.65;6.53;;;23.90;59.20;;;;;;4992470;28;20034;-69
2022/06/20 01:48:26;;;;;;;12.25;6.20;;;23.90;58.90;;;;;;4991756;28;20453;-70
2022/06/20 01:50:52;;;;;;;10.43;6.85;;;23.90;58.80;;;;;;4990927;28;20042;-70
2022/06/20 01:53:22;;;;;;;16.98;7.18;;;23.90;58.80;;;;;;4993477;28;20039;-69
2022/06/20 01:55:52;;;;;;;15.18;7.30;;;23.90;58.70;;;;;;4993454;28;20045;-68
2022/06/20 01:58:35;;;;;;;11.88;6.88;;;23.80;58.80;;;;;;4992832;28;20213;-68
2022/06/20 02:01:03;;;;;;;12.73;6.65;;;23.80;59.40;;;;;;4990387;28;20042;-70
2022/06/20 02:03:31;;;;;;;10.10;6.07;;;23.70;58.90;;;;;;4991693;28;20031;-69
2022/06/20 02:05:57;;;;;;;17.10;7.40;;;23.70;59.20;;;;;;4992290;28;20040;-69
2022/06/20 02:08:24;;;;;;;12.50;6.88;;;23.70;59.30;;;;;;4991646;28;20040;-70
2022/06/20 02:11:31;;;;;;;11.50;7.32;;;23.60;59.40;;;;;;4990326;28;20072;-69
2022/06/20 02:14:10;;;;;;;10.20;6.05;;;23.60;60.00;;;;;;4918824;29;20614;-69
2022/06/20 02:16:40;;;;;;;11.43;6.55;;;23.50;59.70;;;;;;4984564;28;20118;-70
2022/06/20 02:19:08;;;;;;;12.15;7.10;;;23.50;59.80;;;;;;4991958;28;20072;-70
2022/06/20 02:21:36;;;;;;;14.63;7.20;;;23.50;59.80;;;;;;4991112;28;20038;-68
2022/06/20 02:24:07;;;;;;;11.93;6.60;;;23.50;60.00;;;;;;4993684;28;20034;-70
2022/06/20 02:26:37;;;;;;;12.75;6.97;;;23.50;60.00;;;;;;4992484;28;20103;-69
2022/06/20 02:29:26;;;;;;;10.95;7.20;;;23.50;60.00;;;;;;4992884;28;20548;-70
2022/06/20 02:31:55;;;;;;;13.15;7.63;;;23.50;60.30;;;;;;4976387;28;20455;-69
2022/06/20 02:34:26;;;;;;;17.73;7.35;;;23.40;59.80;;;;;;4991325;28;20049;-68
2022/06/20 02:36:53;;;;;;;12.95;7.28;;;23.30;59.60;;;;;;4989444;28;20030;-69
2022/06/20 02:39:20;;;;;;;12.57;7.75;;;23.20;59.90;;;;;;4991149;28;20083;-68
2022/06/20 02:41:49;;;;;;;17.75;7.60;;;23.10;59.90;;;;;;4993009;28;20575;-69
2022/06/20 02:44:17;;;;;;;14.23;7.30;;;23.10;60.30;;;;;;4995757;28;20556;-70
2022/06/20 02:46:47;;;;;;;16.60;7.60;;;23.00;61.50;;;;;;4991042;28;20081;-69
2022/06/20 02:49:17;;;;;;;16.00;7.72;;;23.00;60.80;;;;;;4993365;28;20032;-70
2022/06/20 02:51:52;;;;;;;14.98;7.85;;;22.90;60.80;;;;;;4990417;28;20521;-69
2022/06/20 02:54:21;;;;;;;15.55;6.88;;;22.90;61.00;;;;;;4993583;28;20037;-69
2022/06/20 02:56:51;;;;;;;11.93;7.35;;;22.80;60.80;;;;;;4990865;28;20048;-69
2022/06/20 02:59:25;;;;;;;20.20;7.30;;;22.80;61.00;;;;;;4994024;28;20553;-68
2022/06/20 03:02:00;;;;;;;14.27;7.72;;;22.80;61.40;;;;;;4990292;28;20386;-69
2022/06/20 03:04:27;;;;;;;17.80;7.43;;;22.80;61.00;;;;;;4991089;28;20113;-69
2022/06/20 03:07:01;;;;;;;17.90;7.90;;;22.70;61.50;;;;;;4989853;28;20038;-69
2022/06/20 03:09:32;;;;;;;14.57;7.72;;;22.70;61.70;;;;;;4991212;28;20113;-70
2022/06/20 03:12:01;;;;;;;13.88;7.35;;;22.70;61.50;;;;;;4993555;28;20038;-69
2022/06/20 03:14:47;;;;;;;17.27;7.38;;;22.70;61.90;;;;;;4993314;28;20053;-70
2022/06/20 03:17:15;;;;;;;15.43;7.85;;;22.80;62.20;;;;;;4992158;28;20387;-69
2022/06/20 03:19:44;;;;;;;13.65;6.68;;;22.80;61.70;;;;;;4991911;28;20030;-69
2022/06/20 03:22:15;;;;;;;14.48;7.13;;;22.80;61.90;;;;;;4993406;28;20096;-69
2022/06/20 03:24:41;;;;;;;15.57;7.30;;;22.80;62.00;;;;;;4997210;28;20046;-68
2022/06/20 03:27:10;;;;;;;15.30;7.25;;;22.80;61.70;;;;;;4996827;28;20417;-70
2022/06/20 03:29:38;;;;;;;15.10;7.55;;;22.90;61.70;;;;;;4997536;28;20056;-70
2022/06/20 03:32:05;;;;;;;15.40;7.50;;;22.90;62.00;;;;;;4998429;28;20034;-70
2022/06/20 03:34:31;;;;;;;12.18;7.47;;;22.80;61.30;;;;;;4993395;28;20045;-67
2022/06/20 03:36:57;;;;;;;13.55;7.80;;;22.90;61.50;;;;;;4993934;28;20038;-69
2022/06/20 03:39:23;;;;;;;13.52;8.07;;;22.80;62.10;;;;;;4995888;28;20154;-69
2022/06/20 03:41:49;;;;;;;18.75;8.32;;;22.80;61.70;;;;;;4991922;28;20056;-68
2022/06/20 03:44:21;;;;;;;14.38;7.90;;;22.70;61.70;;;;;;4999684;28;20037;-69
2022/06/20 03:46:56;;;;;;;12.52;7.50;;;22.70;61.70;;;;;;4993580;28;20042;-68
2022/06/20 03:49:45;;;;;;;13.95;7.93;;;22.70;62.00;;;;;;4995617;28;20037;-68
2022/06/20 03:52:34;;;;;;;12.88;7.70;;;22.70;62.40;;;;;;4976090;28;20037;-69
2022/06/20 03:55:12;;;;;;;16.08;7.30;;;22.70;61.90;;;;;;4995085;28;20120;-68
2022/06/20 03:57:58;;;;;;;19.30;7.50;;;22.70;62.00;;;;;;4994390;28;20025;-69
2022/06/20 04:00:35;;;;;;;16.38;7.95;;;22.60;62.40;;;;;;4996034;28;20516;-70
2022/06/20 04:03:19;;;;;;;16.20;7.45;;;22.60;62.00;;;;;;4995323;28;20064;-69
2022/06/20 04:05:57;;;;;;;15.67;7.97;;;22.60;62.90;;;;;;4994054;28;20104;-68
2022/06/20 04:10:57;;;;;;;14.63;8.10;;;22.60;62.40;;;;;;4995011;28;20107;-69
2022/06/20 04:11:16;;;;;;;13.82;7.50;;;22.60;62.60;;;;;;4995519;28;20120;-69
2022/06/20 04:14:01;;;;;;;16.77;7.80;;;22.60;61.90;;;;;;4996816;28;20034;-70
2022/06/20 04:16:51;;;;;;;17.45;8.02;;;22.60;62.20;;;;;;4994261;28;20044;-69
2022/06/20 04:19:38;;;;;;;11.68;7.25;;;22.60;62.90;;;;;;4994567;28;20058;-69
2022/06/20 04:22:19;;;;;;;15.23;7.15;;;22.70;63.30;;;;;;4995891;28;20068;-69
2022/06/20 04:25:02;;;;;;;11.68;7.80;;;22.70;62.90;;;;;;4991228;28;20097;-69
2022/06/20 04:27:48;;;;;;;15.10;7.25;;;22.70;63.10;;;;;;4995857;28;20041;-69
2022/06/20 04:30:26;;;;;;;14.13;7.57;;;22.70;62.90;;;;;;4997783;28;20052;-70
2022/06/20 04:32:59;;;;;;;13.23;6.95;;;22.80;62.40;;;;;;4994479;28;20370;-69
2022/06/20 04:35:33;;;;;;;15.90;7.60;;;22.90;62.40;;;;;;4994473;28;20037;-69
2022/06/20 04:38:14;;;;;;;16.57;7.60;;;22.90;63.20;;;;;;4996514;28;20445;-70
2022/06/20 04:40:47;;;;;;;17.20;7.70;;;23.00;63.00;;;;;;4994146;28;20089;-67
2022/06/20 04:43:36;;;;;;;21.88;7.97;;;23.10;62.60;;;;;;4996247;28;20110;-69
2022/06/20 04:46:15;;;;;;;20.17;7.97;;;23.20;62.80;;;;;;4995712;28;20445;-70
2022/06/20 04:48:45;;;;;;;15.40;7.32;;;23.30;62.40;;;;;;4994238;28;20030;-69
2022/06/20 04:51:16;;;;;;;15.05;7.80;;;23.40;62.20;;;;;;4996327;28;20092;-69
2022/06/20 04:53:45;;;;;;;27.00;7.25;;;23.50;62.10;;;;;;4994721;28;20035;-68
2022/06/20 04:56:14;;;;;;;21.73;7.70;;;23.60;63.10;;;;;;4994441;28;20042;-69
2022/06/20 04:58:42;;;;;;;19.30;7.53;;;23.60;62.20;;;;;;4993990;28;20464;-70
2022/06/20 05:01:09;;;;;;;18.30;7.40;;;23.70;62.20;;;;;;4997268;28;20592;-69
2022/06/20 05:03:44;;;;;;;14.73;6.40;;;23.80;62.50;;;;;;4994110;28;20038;-68
2022/06/20 05:06:27;;;;;;;15.13;5.80;;;23.90;61.10;;;;;;4994017;28;21872;-70
2022/06/20 05:09:15;;;;;;;12.95;5.35;;;23.90;60.00;;;;;;4993826;28;20095;-70
2022/06/20 05:11:58;;;;;;;11.88;4.82;;;24.00;59.40;;;;;;4978216;28;20026;-67
2022/06/20 05:14:46;;;;;;;9.63;4.80;;;24.10;57.70;;;;;;4994104;28;20598;-70
2022/06/20 05:17:22;;;;;;;17.90;5.03;;;24.30;57.20;;;;;;4996706;28;20026;-69
2022/06/20 05:19:53;;;;;;;13.05;4.85;;;24.40;56.70;;;;;;4995881;28;20441;-69
2022/06/20 05:22:25;;;;;;;9.57;4.68;;;24.50;56.60;;;;;;4993821;28;20501;-70
2022/06/20 05:24:52;;;;;;;9.98;4.70;;;24.60;56.00;;;;;;4995142;28;20039;-67
2022/06/20 05:27:33;;;;;;;9.30;4.32;;;24.70;55.80;;;;;;4994312;28;20030;-70
2022/06/20 05:30:00;;;;;;;10.45;4.50;;;24.80;55.70;;;;;;4993755;28;20042;-70
2022/06/20 05:32:43;;;;;;;8.88;4.95;;;24.90;55.30;;;;;;4994670;28;20026;-69
2022/06/20 05:35:17;;;;;;;14.45;4.50;;;24.90;54.70;;;;;;4994586;28;20042;-69
2022/06/20 05:37:49;;;;;;;10.60;4.90;;;25.00;54.60;;;;;;4994240;28;20070;-70
2022/06/20 05:40:27;;;;;;;9.38;4.20;;;25.00;54.50;;;;;;4995839;28;20030;-69
2022/06/20 05:42:52;;;;;;;9.13;4.30;;;25.10;54.10;;;;;;4994089;28;20033;-70
2022/06/20 05:45:21;;;;;;;10.85;4.10;;;25.20;54.50;;;;;;4994041;28;20434;-69
2022/06/20 05:47:53;;;;;;;11.95;4.05;;;25.30;54.30;;;;;;4993804;28;20038;-70
2022/06/20 05:50:24;;;;;;;10.25;4.03;;;25.40;54.00;;;;;;4993275;28;20497;-70
2022/06/20 05:52:51;;;;;;;13.05;3.70;;;25.40;53.70;;;;;;4991814;28;20089;-70
2022/06/20 05:55:33;;;;;;;9.93;3.42;;;25.40;53.80;;;;;;4993000;28;20103;-69
2022/06/20 05:58:00;;;;;;;7.28;3.53;;;25.50;53.10;;;;;;4994797;28;20034;-70
2022/06/20 06:00:33;;;;;;;8.80;3.45;;;25.50;53.60;;;;;;4994675;28;20635;-70
2022/06/20 06:03:05;;;;;;;9.73;3.35;;;25.60;53.50;;;;;;4996507;28;20038;-68
2022/06/20 06:05:35;;;;;;;8.25;3.05;;;25.70;53.40;;;;;;4993476;28;20033;-69
2022/06/20 06:08:28;;;;;;;7.38;2.97;;;25.80;53.20;;;;;;4993410;28;20101;-69
2022/06/20 06:10:59;;;;;;;6.75;3.17;;;25.80;52.40;;;;;;4985067;28;20499;-68
2022/06/20 06:14:27;;;;;;;9.93;3.05;;;25.90;52.80;;;;;;4995727;28;20061;-69
2022/06/20 06:17:00;;;;;;;10.07;3.22;;;26.00;52.00;;;;;;4951862;28;20069;-69
2022/06/20 06:19:38;;;;;;;7.32;2.67;;;26.10;52.20;;;;;;4994028;28;20031;-68
2022/06/20 06:22:09;;;;;;;9.65;3.10;;;26.10;52.00;;;;;;4993893;28;20034;-69
2022/06/20 06:24:40;;;;;;;33.78;3.97;;;26.20;52.10;;;;;;4992456;28;20405;-70
2022/06/20 06:27:10;;;;;;;9.07;2.90;;;26.30;52.10;;;;;;4995757;28;20097;-70
2022/06/20 06:30:06;;;;;;;9.57;2.70;;;26.30;51.70;;;;;;4994011;28;20026;-70
2022/06/20 06:32:43;;;;;;;5.78;2.90;;;26.40;51.40;;;;;;4993630;28;20405;-67
2022/06/20 06:35:12;;;;;;;6.25;2.33;;;26.50;51.20;;;;;;4995600;28;20513;-66
2022/06/20 06:38:09;;;;;;;6.82;2.60;;;26.60;51.10;;;;;;4995414;28;20429;-69
2022/06/20 06:40:47;;;;;;;10.75;2.75;;;26.70;50.60;;;;;;4997706;28;20034;-69
2022/06/20 06:43:28;;;;;;;7.47;2.70;;;26.70;50.40;;;;;;4996936;28;20040;-68
2022/06/20 06:45:58;;;;;;;6.22;2.80;;;26.80;50.30;;;;;;4996890;28;20117;-68
2022/06/20 06:48:54;;;;;;;9.35;3.00;;;26.90;50.70;;;;;;4992751;28;20070;-69
2022/06/20 06:51:19;;;;;;;;;;;26.90;50.00;;;;;;4993217;28;20524;-69
2022/06/20 06:53:57;;;;;;;4.07;2.53;;;27.00;50.70;;;;;;4993616;28;19922;-68
2022/06/20 06:56:30;;;;;;;12.68;2.67;;;27.10;50.30;;;;;;4992733;28;20035;-68
2022/06/20 06:59:00;;;;;;;7.80;2.78;;;27.10;50.10;;;;;;4990051;28;22199;-69
2022/06/20 07:01:32;;;;;;;8.55;2.70;;;27.10;49.80;;;;;;4994309;28;20405;-69
2022/06/20 07:04:08;;;;;;;12.43;3.03;;;27.20;49.80;;;;;;4994469;28;20041;-69
2022/06/20 07:06:42;;;;;;;5.35;2.67;;;27.20;49.10;;;;;;4993168;28;20414;-68
2022/06/20 07:09:10;;;;;;;7.80;2.63;;;27.30;49.40;;;;;;4992655;28;20038;-68
2022/06/20 07:11:40;;;;;;;4.55;2.60;;;27.30;49.30;;;;;;4992430;28;20042;-69
2022/06/20 07:14:16;;;;;;;8.07;3.20;;;27.40;49.00;;;;;;4991052;28;20609;-68
2022/06/20 07:17:00;;;;;;;9.30;3.08;;;27.40;48.80;;;;;;4991729;28;20603;-69
2022/06/20 07:19:27;;;;;;;5.32;2.70;;;27.40;48.60;;;;;;4991770;28;20034;-69
2022/06/20 07:21:54;;;;;;;6.18;2.75;;;27.40;48.90;;;;;;4995249;28;20042;-69
2022/06/20 07:24:24;;;;;;;5.10;2.58;;;27.40;48.80;;;;;;4994981;28;20037;-68
2022/06/20 07:27:02;;;;;;;5.38;2.30;;;27.50;49.10;;;;;;4991367;28;20075;-68
2022/06/20 07:29:35;;;;;;;6.22;2.70;;;27.50;48.20;;;;;;4993274;28;20081;-69
2022/06/20 07:32:27;;;;;;;7.72;3.17;;;27.60;48.60;;;;;;4994723;28;20486;-68
2022/06/20 07:34:57;;;;;;;10.48;3.30;;;27.60;47.80;;;;;;4993317;28;20058;-68
2022/06/20 07:37:38;;;;;;;15.88;3.03;;;27.60;48.00;;;;;;4994343;28;20490;-69
2022/06/20 07:40:13;;;;;;;8.60;2.75;;;27.60;48.30;;;;;;4994062;28;20571;-69
2022/06/20 07:43:14;;;;;;;14.82;3.20;;;27.60;48.50;;;;;;4992949;28;20529;-67
2022/06/20 07:45:43;;;;;;;10.02;3.15;;;27.50;50.60;;;;;;4989486;28;20607;-65
2022/06/20 07:48:18;;;;;;;9.38;2.90;;;27.40;51.00;;;;;;4992866;28;20045;-66
2022/06/20 07:50:52;;;;;;;6.97;3.10;;;27.30;51.90;;;;;;4990070;28;20108;-67
2022/06/20 07:53:32;;;;;;;10.10;3.28;;;27.10;51.70;;;;;;4993333;28;20034;-67
2022/06/20 07:56:03;;;;;;;8.80;3.08;;;26.90;52.50;;;;;;4992666;28;20510;-67
2022/06/20 07:58:36;;;;;;;6.20;3.10;;;26.70;53.10;;;;;;4992947;28;20034;-67
2022/06/20 08:01:12;;;;;;;4.72;2.92;;;26.50;54.30;;;;;;4992258;28;20092;-67
2022/06/20 08:04:01;;;;;;;9.35;3.67;;;26.40;55.00;;;;;;4990891;28;20050;-67
2022/06/20 08:06:37;;;;;;;8.60;3.55;;;26.30;55.80;;;;;;4993165;28;20030;-67
2022/06/20 08:09:33;;;;;;;6.80;3.15;;;26.10;55.90;;;;;;4993385;28;20041;-67
2022/06/20 08:12:27;;;;;;;8.38;3.17;;;26.10;55.60;;;;;;4991945;28;20121;-68
2022/06/20 08:15:08;;;;;;;6.88;3.47;;;26.00;56.60;;;;;;4962988;28;20080;-68
2022/06/20 08:17:34;;;;;;;7.72;3.17;;;25.90;57.10;;;;;;4995695;28;20041;-68
2022/06/20 08:20:00;;;;;;;7.25;3.25;;;25.90;56.70;;;;;;4995648;28;20034;-67
2022/06/20 08:22:47;;;;;;;8.15;3.30;;;25.90;57.20;;;;;;4997702;28;20118;-68
2022/06/20 08:25:24;;;;;;;9.10;3.30;;;25.80;58.00;;;;;;4995070;28;20634;-68
2022/06/20 08:28:02;;;;;;;5.88;3.08;;;25.80;57.40;;;;;;4996707;28;20046;-68
2022/06/20 08:30:39;;;;;;;8.23;3.35;;;25.80;57.60;;;;;;4997656;28;20048;-68
2022/06/20 08:33:20;;;;;;;7.43;3.70;;;25.80;57.40;;;;;;4997845;28;20041;-67
2022/06/20 08:35:49;;;;;;;6.15;3.20;;;25.80;57.10;;;;;;4996035;28;20041;-66
2022/06/20 08:38:36;;;;;;;7.88;3.78;;;25.80;57.00;;;;;;4998262;28;20065;-68
2022/06/20 08:41:32;;;;;;;4.65;3.28;;;25.80;57.00;;;;;;4996878;28;20034;-67
2022/06/20 08:44:06;;;;;;;7.22;3.33;;;25.80;57.60;;;;;;4998250;28;20042;-69
2022/06/20 08:47:09;;;;;;;7.32;3.20;;;25.80;57.10;;;;;;4996353;28;20046;-66
2022/06/20 08:49:47;;;;;;;6.07;3.58;;;25.90;57.60;;;;;;4997445;28;20041;-69
2022/06/20 08:52:37;;;;;;;4.53;2.72;;;25.90;57.00;;;;;;4993307;28;20038;-68
2022/06/20 08:55:08;;;;;;;4.47;3.38;;;26.00;57.80;;;;;;4995052;28;20050;-68
2022/06/20 08:57:43;;;;;;;4.10;3.10;;;26.10;57.40;;;;;;4997177;28;20081;-69
2022/06/20 09:00:33;;;;;;;5.97;3.17;;;26.10;57.00;;;;;;4995533;28;20084;-67
2022/06/20 09:03:17;;;;;;;5.63;3.20;;;26.30;56.20;;;;;;4996707;28;20063;-68
2022/06/20 09:06:01;;;;;;;9.98;3.28;;;26.40;56.60;;;;;;4994449;28;20763;-68
2022/06/20 09:08:33;;;;;;;7.13;3.55;;;26.50;56.60;;;;;;4996537;28;20037;-69
2022/06/20 09:11:07;;;;;;;5.18;3.38;;;26.60;56.40;;;;;;4997333;28;20518;-68
2022/06/20 09:13:49;;;;;;;5.47;3.30;;;26.80;56.70;;;;;;4999476;28;20035;-67
2022/06/20 09:16:22;;;;;;;6.40;3.47;;;26.90;56.10;;;;;;4998226;28;20042;-68
2022/06/20 09:19:08;;;;;;;4.70;3.50;;;27.10;54.90;;;;;;4999093;28;20428;-69
2022/06/20 09:21:44;;;;;;;4.78;3.20;;;27.10;54.30;;;;;;4999240;28;20509;-68
2022/06/20 09:24:48;;;;;;;7.32;3.13;;;27.20;53.80;;;;;;4998785;28;20493;-68
2022/06/20 09:27:25;;;;;;;8.30;3.30;;;27.30;54.10;;;;;;4915335;29;20083;-69
2022/06/20 09:29:56;;;;;;;4.47;3.42;;;27.50;53.80;;;;;;4918779;29;20047;-69
2022/06/20 09:32:43;;;;;;;8.27;3.85;;;27.60;52.90;;;;;;4963430;28;20066;-68
2022/06/20 09:35:33;;;;;;;7.75;3.70;;;27.70;52.10;;;;;;4995180;28;20054;-68
2022/06/20 09:38:30;;;;;;;8.32;4.18;;;27.80;51.40;;;;;;4995185;28;20338;-68
2022/06/20 09:41:25;;;;;;;5.53;4.20;;;27.90;51.10;;;;;;4995931;28;20568;-69
2022/06/20 09:44:00;;;;;;;7.60;4.03;;;28.00;50.90;;;;;;4997392;28;20529;-68
2022/06/20 09:46:47;;;;;;;10.38;3.88;;;28.10;51.00;;;;;;4992599;28;20033;-67
2022/06/20 09:49:48;;;;;;;5.72;4.07;;;28.10;50.20;;;;;;4994438;28;20571;-69
2022/06/20 09:52:31;;;;;;;8.27;4.35;;;28.20;49.60;;;;;;4994501;28;20041;-69
2022/06/20 09:54:57;;;;;;;6.95;4.00;;;28.20;49.90;;;;;;4994602;28;20514;-68
2022/06/20 09:57:47;;;;;;;7.95;3.83;;;28.30;50.10;;;;;;4996364;28;20112;-69
2022/06/20 10:00:25;;;;;;;6.18;3.80;;;28.30;50.00;;;;;;4996463;28;20046;-69
2022/06/20 10:03:36;;;;;;;7.80;3.88;;;28.30;49.70;;;;;;4995033;28;20116;-68
2022/06/20 10:06:31;;;;;;;7.10;3.80;;;28.40;50.00;;;;;;4976632;28;20034;-67
2022/06/20 10:09:26;;;;;;;7.45;3.67;;;28.50;49.90;;;;;;4992743;28;20045;-69
2022/06/20 10:11:59;;;;;;;6.20;3.28;;;28.60;49.50;;;;;;4971324;28;20038;-68
2022/06/20 10:14:39;;;;;;;4.97;3.60;;;28.60;49.30;;;;;;4995074;28;20096;-69
2022/06/20 10:17:17;;;;;;;4.15;3.53;;;28.70;49.30;;;;;;4994623;28;20505;-68
2022/06/20 10:19:58;;;;;;;6.95;3.53;;;28.70;49.00;;;;;;4994786;28;20035;-68
2022/06/20 10:22:31;;;;;;;7.20;3.70;;;28.80;49.40;;;;;;4994448;28;20034;-71
2022/06/20 10:25:35;;;;;;;5.82;3.33;;;28.80;49.30;;;;;;4994964;28;20044;-68
2022/06/20 10:28:24;;;;;;;7.05;3.60;;;28.90;48.70;;;;;;4992580;28;20116;-69
2022/06/20 10:31:28;;;;;;;8.18;3.22;;;29.00;48.30;;;;;;4995347;28;20085;-69
2022/06/20 10:34:27;;;;;;;7.57;2.90;;;29.10;48.10;;;;;;4959916;28;20034;-69
2022/06/20 10:37:14;;;;;;;4.72;2.63;;;29.20;48.30;;;;;;4993690;28;20489;-68
2022/06/20 10:40:13;;;;;;;6.60;2.70;;;29.30;48.40;;;;;;4993778;28;20370;-68
2022/06/20 10:43:09;;;;;;;4.38;2.60;;;29.40;48.30;;;;;;4965364;28;20034;-69
2022/06/20 10:45:48;;;;;;;4.93;2.60;;;29.50;47.50;;;;;;4994422;28;20448;-68
2022/06/20 10:48:14;;;;;;;6.13;3.13;;;29.70;48.50;;;;;;4995995;28;20050;-68
2022/06/20 10:50:48;;;;;;;4.93;2.70;;;29.80;48.00;;;;;;4993594;28;20061;-67
2022/06/20 10:53:43;;;;;;;6.33;2.97;;;29.90;47.10;;;;;;4994427;28;20038;-68
2022/06/20 10:56:15;;;;;;;3.45;2.70;;;30.00;46.50;;;;;;4996838;28;20311;-69
2022/06/20 10:58:49;;;;;;;4.07;2.70;;;30.20;46.10;;;;;;4991739;28;20431;-68
2022/06/20 11:01:31;;;;;;;9.48;2.83;;;30.30;45.50;;;;;;4991669;28;20042;-68
2022/06/20 11:04:21;;;;;;;3.72;2.67;;;30.30;45.50;;;;;;4994056;28;20397;-69
2022/06/20 11:07:32;;;;;;;3.80;2.20;;;30.40;45.60;;;;;;4993256;28;20045;-69
2022/06/20 11:10:11;;;;;;;3.88;2.50;;;30.50;41.90;;;;;;4974889;28;20038;-68
2022/06/20 11:12:56;;;;;;;7.80;2.33;;;30.60;41.10;;;;;;4991974;28;20049;-69
2022/06/20 11:15:40;;;;;;;6.05;2.60;;;30.70;43.10;;;;;;4992631;28;20509;-68
2022/06/20 11:18:39;;;;;;;4.30;2.35;;;30.70;41.30;;;;;;4991137;28;20039;-68
2022/06/20 11:21:13;;;;;;;6.50;2.65;;;30.80;40.30;;;;;;4994615;28;20121;-69
2022/06/20 11:23:50;;;;;;;4.32;2.28;;;30.70;40.80;;;;;;4994980;28;20117;-69
2022/06/20 11:26:36;;;;;;;2.88;2.40;;;30.70;41.30;;;;;;4993805;28;20041;-69
2022/06/20 11:29:40;;;;;;;3.25;2.60;;;30.70;40.20;;;;;;4994660;28;20050;-69
2022/06/20 11:32:38;;;;;;;2.70;2.30;;;30.80;40.00;;;;;;4995041;28;20409;-69
2022/06/20 11:35:24;;;;;;;4.90;2.53;;;30.80;40.10;;;;;;4995329;28;20418;-67
2022/06/20 11:38:04;;;;;;;5.07;2.50;;;30.90;39.00;;;;;;4993638;28;20034;-69
2022/06/20 11:41:05;;;;;;;2.92;2.30;;;31.00;39.50;;;;;;4994098;28;20026;-68
2022/06/20 11:43:53;;;;;;;5.07;2.25;;;31.10;40.00;;;;;;4945004;28;20517;-69
2022/06/20 11:46:36;;;;;;;5.43;2.30;;;31.20;40.40;;;;;;4999944;28;20084;-69
2022/06/20 11:49:30;;;;;;;4.85;2.10;;;31.20;40.40;;;;;;4994164;28;20033;-69
2022/06/20 11:51:56;;;;;;;5.15;2.28;;;31.40;40.10;;;;;;4994839;28;20030;-68
2022/06/20 11:54:41;;;;;;;6.03;2.50;;;31.50;40.50;;;;;;4997870;28;20026;-70
2022/06/20 11:57:49;;;;;;;4.90;2.25;;;31.60;39.90;;;;;;4997694;28;20049;-69
2022/06/20 12:00:20;;;;;;;2.78;2.40;;;31.70;39.70;;;;;;4953400;28;20413;-68
2022/06/20 12:03:11;;;;;;;3.80;2.10;;;31.80;39.00;;;;;;4998842;28;20505;-69
2022/06/20 12:05:46;;;;;;;3.72;2.40;;;31.90;37.90;;;;;;4990513;28;20046;-68
2022/06/20 12:08:20;;;;;;;3.33;2.22;;;31.90;38.10;;;;;;4995996;28;20380;-69
2022/06/20 12:10:57;;;;;;;3.10;2.15;;;32.00;37.90;;;;;;4995719;28;20513;-69
2022/06/20 12:13:45;;;;;;;4.78;2.22;;;32.00;36.90;;;;;;4999769;28;20034;-68
2022/06/20 12:16:11;;;;;;;4.85;2.55;;;32.10;37.00;;;;;;5000381;28;20533;-69
2022/06/20 12:23:18;;;;;;;6.63;2.20;;;32.10;37.90;;;;;;5000767;28;20049;-69
2022/06/20 12:24:20;;;;;;;4.43;2.00;;;32.10;37.70;;;;;;5000439;28;20057;-69
2022/06/20 12:26:45;;;;;;;3.05;1.90;;;32.20;37.80;;;;;;4999033;28;20084;-68
2022/06/20 12:29:21;;;;;;;4.40;2.20;;;32.30;38.50;;;;;;5002458;28;20451;-69
2022/06/20 12:31:51;;;;;;;3.13;2.00;;;32.30;36.80;;;;;;5001000;28;20521;-69
2022/06/20 12:34:19;;;;;;;3.15;2.10;;;32.40;37.20;;;;;;5000453;28;20489;-69
2022/06/20 12:37:07;;;;;;;5.25;2.30;;;32.40;37.40;;;;;;4999045;28;20054;-69
2022/06/20 12:39:43;;;;;;;3.80;2.28;;;32.40;35.40;;;;;;4999094;28;20037;-69
2022/06/20 12:42:17;;;;;;;5.97;2.35;;;32.40;36.40;;;;;;5001609;28;20412;-69
2022/06/20 12:44:49;;;;;;;4.15;2.40;;;32.30;36.60;;;;;;5000487;28;20035;-69
2022/06/20 12:47:32;;;;;;;3.47;2.13;;;32.10;36.80;;;;;;4999774;28;20106;-69
2022/06/20 12:50:24;;;;;;;2.60;2.22;;;32.10;37.00;;;;;;5001360;28;20034;-69
2022/06/20 12:53:18;;;;;;;2.55;2.35;;;31.90;37.10;;;;;;4999453;28;20042;-69
2022/06/20 12:56:13;;;;;;;3.42;2.22;;;31.90;37.10;;;;;;4998103;28;20031;-69
2022/06/20 12:58:57;;;;;;;2.85;2.55;;;31.80;37.20;;;;;;4999693;28;20022;-69
2022/06/20 13:01:41;;;;;;;5.03;2.60;;;31.70;37.30;;;;;;4982877;28;20026;-69
2022/06/20 13:04:28;;;;;;;5.28;2.80;;;31.60;37.90;;;;;;4999025;28;20041;-69
2022/06/20 13:07:09;;;;;;;4.80;2.60;;;31.50;38.50;;;;;;4999938;28;20037;-69
2022/06/20 13:09:50;;;;;;;4.97;2.40;;;31.50;39.10;;;;;;4998948;28;20049;-68
2022/06/20 13:12:36;;;;;;;4.63;2.70;;;31.40;39.50;;;;;;4997177;28;20117;-69
2022/06/20 13:15:22;;;;;;;7.60;2.33;;;31.30;40.00;;;;;;4995979;28;20038;-69
2022/06/20 13:18:03;;;;;;;4.97;2.65;;;31.20;39.90;;;;;;4997757;28;20088;-69
2022/06/20 13:20:56;;;;;;;4.03;2.65;;;31.10;40.00;;;;;;4994936;28;20120;-69
2022/06/20 13:23:49;;;;;;;6.57;2.70;;;31.00;40.60;;;;;;4996114;28;20083;-69
2022/06/20 13:26:33;;;;;;;4.70;2.70;;;30.80;41.00;;;;;;4994843;28;20041;-69
2022/06/20 13:29:34;;;;;;;4.82;3.13;;;30.60;42.00;;;;;;4993295;28;20042;-70
2022/06/20 13:32:10;;;;;;;4.55;3.17;;;30.40;43.10;;;;;;4976024;28;20033;-69
2022/06/20 13:35:02;;;;;;;6.07;2.97;;;30.30;43.70;;;;;;4996583;28;20034;-69
2022/06/20 13:37:42;;;;;;;4.80;3.30;;;30.10;44.40;;;;;;4996122;28;20229;-69
2022/06/20 13:40:16;;;;;;;10.02;3.40;;;30.00;45.00;;;;;;4995139;28;20396;-69
2022/06/20 13:42:54;;;;;;;5.85;3.03;;;29.80;45.20;;;;;;4993406;28;20533;-69
2022/06/20 13:45:32;;;;;;;4.97;2.90;;;29.60;45.10;;;;;;4995498;28;20498;-70